sensor_id;sensor_type;location;lat;lon;timestamp;temperature;humidity
18388;DHT22;9320;50.256;19.026;2022-11-14T00:01:11;7.40;99.90
18388;DHT22;9320;50.256;19.026;2022-11-14T00:03:39;7.10;99.90
18388;DHT22;9320;50.256;19.026;2022-11-14T00:06:08;7.20;99.90
18388;DHT22;9320;50.256;19.026;2022-11-14T00:08:36;7.50;99.90
18388;DHT22;9320;50.256;19.026;2022-11-14T00:11:04;7.60;99.90
18388;DHT22;9320;50.256;19.026;2022-11-14T00:13:32;7.60;99.90
18388;DHT22;9320;50.256;19.026;2022-11-14T00:16:01;7.70;99.90
18388;DHT22;9320;50.256;19.026;2022-11-14T00:18:29;7.90;99.90
18388;DHT22;9320;50.256;19.026;2022-11-14T00:20:58;7.90;99.90
18388;DHT22;9320;50.256;19.026;2022-11-14T00:23:26;7.90;99.90
18388;DHT22;9320;50.256;19.026;2022-11-14T00:25:54;8.00;99.90
18388;DHT22;9320;50.256;19.026;2022-11-14T00:28:22;8.10;99.90
18388;DHT22;9320;50.256;19.026;2022-11-14T00:30:50;8.20;99.90
18388;DHT22;9320;50.256;19.026;2022-11-14T00:33:19;8.20;99.90
18388;DHT22;9320;50.256;19.026;2022-11-14T00:35:51;8.20;99.90
18388;DHT22;9320;50.256;19.026;2022-11-14T00:38:20;8.10;99.90
18388;DHT22;9320;50.256;19.026;2022-11-14T00:40:48;8.00;99.90
18388;DHT22;9320;50.256;19.026;2022-11-14T00:43:16;7.70;99.90
18388;DHT22;9320;50.256;19.026;2022-11-14T00:45:44;7.80;99.90
18388;DHT22;9320;50.256;19.026;2022-11-14T00:48:13;8.00;99.90
18388;DHT22;9320;50.256;19.026;2022-11-14T00:50:42;8.00;99.90
18388;DHT22;9320;50.256;19.026;2022-11-14T00:53:11;8.20;99.90
18388;DHT22;9320;50.256;19.026;2022-11-14T00:55:39;8.10;99.90
18388;DHT22;9320;50.256;19.026;2022-11-14T00:58:08;7.90;99.90
18388;DHT22;9320;50.256;19.026;2022-11-14T01:00:36;8.00;99.90
18388;DHT22;9320;50.256;19.026;2022-11-14T01:03:04;8.00;99.90
18388;DHT22;9320;50.256;19.026;2022-11-14T01:05:32;8.10;99.90
18388;DHT22;9320;50.256;19.026;2022-11-14T01:08:01;7.90;99.90
18388;DHT22;9320;50.256;19.026;2022-11-14T01:10:29;7.70;99.90
18388;DHT22;9320;50.256;19.026;2022-11-14T01:12:57;7.60;99.90
18388;DHT22;9320;50.256;19.026;2022-11-14T01:15:25;7.60;99.90
18388;DHT22;9320;50.256;19.026;2022-11-14T01:17:53;7.50;99.90
18388;DHT22;9320;50.256;19.026;2022-11-14T01:20:21;7.40;99.90
18388;DHT22;9320;50.256;19.026;2022-11-14T01:22:49;7.40;99.90
18388;DHT22;9320;50.256;19.026;2022-11-14T01:25:18;7.40;99.90
18388;DHT22;9320;50.256;19.026;2022-11-14T01:27:46;7.50;99.90
18388;DHT22;9320;50.256;19.026;2022-11-14T01:30:14;7.30;99.90
18388;DHT22;9320;50.256;19.026;2022-11-14T01:32:42;7.30;99.90
18388;DHT22;9320;50.256;19.026;2022-11-14T01:35:10;7.60;99.90
18388;DHT22;9320;50.256;19.026;2022-11-14T01:37:38;7.80;99.90
18388;DHT22;9320;50.256;19.026;2022-11-14T01:40:08;8.00;99.90
18388;DHT22;9320;50.256;19.026;2022-11-14T01:42:37;8.10;99.90
18388;DHT22;9320;50.256;19.026;2022-11-14T01:48:17;8.10;99.90
18388;DHT22;9320;50.256;19.026;2022-11-14T01:50:51;8.20;99.90
18388;DHT22;9320;50.256;19.026;2022-11-14T01:53:21;8.20;99.90
18388;DHT22;9320;50.256;19.026;2022-11-14T01:55:49;7.90;99.90
18388;DHT22;9320;50.256;19.026;2022-11-14T01:58:19;7.90;99.90
18388;DHT22;9320;50.256;19.026;2022-11-14T02:00:48;7.60;99.90
18388;DHT22;9320;50.256;19.026;2022-11-14T02:03:16;7.30;99.90
18388;DHT22;9320;50.256;19.026;2022-11-14T02:05:46;7.20;99.90
18388;DHT22;9320;50.256;19.026;2022-11-14T02:08:15;7.40;99.90
18388;DHT22;9320;50.256;19.026;2022-11-14T02:10:44;7.40;99.90
18388;DHT22;9320;50.256;19.026;2022-11-14T02:13:12;7.30;99.90
18388;DHT22;9320;50.256;19.026;2022-11-14T02:15:42;7.30;99.90
18388;DHT22;9320;50.256;19.026;2022-11-14T02:18:10;7.40;99.90
18388;DHT22;9320;50.256;19.026;2022-11-14T02:20:39;7.50;99.90
18388;DHT22;9320;50.256;19.026;2022-11-14T02:23:10;7.50;99.90
18388;DHT22;9320;50.256;19.026;2022-11-14T02:25:38;7.50;99.90
18388;DHT22;9320;50.256;19.026;2022-11-14T02:28:08;7.50;99.90
18388;DHT22;9320;50.256;19.026;2022-11-14T02:30:37;7.60;99.90
18388;DHT22;9320;50.256;19.026;2022-11-14T02:33:05;7.50;99.90
18388;DHT22;9320;50.256;19.026;2022-11-14T02:35:38;7.50;99.90
18388;DHT22;9320;50.256;19.026;2022-11-14T02:38:07;7.50;99.90
18388;DHT22;9320;50.256;19.026;2022-11-14T02:40:35;7.60;99.90
18388;DHT22;9320;50.256;19.026;2022-11-14T02:43:03;7.80;99.90
18388;DHT22;9320;50.256;19.026;2022-11-14T02:45:31;7.80;99.90
18388;DHT22;9320;50.256;19.026;2022-11-14T02:47:59;7.70;99.90
18388;DHT22;9320;50.256;19.026;2022-11-14T02:50:27;7.70;99.90
18388;DHT22;9320;50.256;19.026;2022-11-14T02:52:56;7.80;99.90
18388;DHT22;9320;50.256;19.026;2022-11-14T02:55:24;7.90;99.90
18388;DHT22;9320;50.256;19.026;2022-11-14T02:57:52;7.60;99.90
18388;DHT22;9320;50.256;19.026;2022-11-14T03:00:20;7.20;99.90
18388;DHT22;9320;50.256;19.026;2022-11-14T03:02:48;6.90;99.90
18388;DHT22;9320;50.256;19.026;2022-11-14T03:05:16;7.00;99.90
18388;DHT22;9320;50.256;19.026;2022-11-14T03:07:44;7.20;99.90
18388;DHT22;9320;50.256;19.026;2022-11-14T03:10:14;7.10;99.90
18388;DHT22;9320;50.256;19.026;2022-11-14T03:12:42;7.30;99.90
18388;DHT22;9320;50.256;19.026;2022-11-14T03:15:10;7.30;99.90
18388;DHT22;9320;50.256;19.026;2022-11-14T03:17:38;6.80;99.90
18388;DHT22;9320;50.256;19.026;2022-11-14T03:20:07;6.50;99.90
18388;DHT22;9320;50.256;19.026;2022-11-14T03:22:35;6.60;99.90
18388;DHT22;9320;50.256;19.026;2022-11-14T03:25:04;6.80;99.90
18388;DHT22;9320;50.256;19.026;2022-11-14T03:27:33;7.00;99.90
18388;DHT22;9320;50.256;19.026;2022-11-14T03:30:02;7.20;99.90
18388;DHT22;9320;50.256;19.026;2022-11-14T03:32:30;7.20;99.90
18388;DHT22;9320;50.256;19.026;2022-11-14T03:34:58;7.30;99.90
18388;DHT22;9320;50.256;19.026;2022-11-14T03:37:26;7.40;99.90
18388;DHT22;9320;50.256;19.026;2022-11-14T03:39:53;7.30;99.90
18388;DHT22;9320;50.256;19.026;2022-11-14T03:42:22;7.20;99.90
18388;DHT22;9320;50.256;19.026;2022-11-14T03:44:51;7.00;99.90
18388;DHT22;9320;50.256;19.026;2022-11-14T03:47:19;7.20;99.90
18388;DHT22;9320;50.256;19.026;2022-11-14T03:49:48;7.10;99.90
18388;DHT22;9320;50.256;19.026;2022-11-14T03:52:16;6.70;99.90
18388;DHT22;9320;50.256;19.026;2022-11-14T03:54:43;6.60;99.90
18388;DHT22;9320;50.256;19.026;2022-11-14T03:57:11;6.50;99.90
18388;DHT22;9320;50.256;19.026;2022-11-14T03:59:39;6.30;99.90
18388;DHT22;9320;50.256;19.026;2022-11-14T04:02:09;6.50;99.90
18388;DHT22;9320;50.256;19.026;2022-11-14T04:04:37;6.60;99.90
18388;DHT22;9320;50.256;19.026;2022-11-14T04:07:05;6.60;99.90
18388;DHT22;9320;50.256;19.026;2022-11-14T04:09:33;6.60;99.90
18388;DHT22;9320;50.256;19.026;2022-11-14T04:12:01;6.70;99.90
18388;DHT22;9320;50.256;19.026;2022-11-14T04:14:29;6.60;99.90
18388;DHT22;9320;50.256;19.026;2022-11-14T04:16:57;6.50;99.90
18388;DHT22;9320;50.256;19.026;2022-11-14T04:19:26;6.60;99.90
18388;DHT22;9320;50.256;19.026;2022-11-14T04:21:54;6.50;99.90
18388;DHT22;9320;50.256;19.026;2022-11-14T04:24:22;6.40;99.90
18388;DHT22;9320;50.256;19.026;2022-11-14T04:26:50;6.30;99.90
18388;DHT22;9320;50.256;19.026;2022-11-14T04:29:18;6.20;99.90
18388;DHT22;9320;50.256;19.026;2022-11-14T04:31:46;6.30;99.90
18388;DHT22;9320;50.256;19.026;2022-11-14T04:34:14;6.40;99.90
18388;DHT22;9320;50.256;19.026;2022-11-14T04:36:43;6.50;99.90
18388;DHT22;9320;50.256;19.026;2022-11-14T04:39:11;6.60;99.90
18388;DHT22;9320;50.256;19.026;2022-11-14T04:41:39;6.70;99.90
18388;DHT22;9320;50.256;19.026;2022-11-14T04:44:07;6.80;99.90
18388;DHT22;9320;50.256;19.026;2022-11-14T04:46:35;6.50;99.90
18388;DHT22;9320;50.256;19.026;2022-11-14T04:49:03;6.60;99.90
18388;DHT22;9320;50.256;19.026;2022-11-14T04:51:31;6.70;99.90
18388;DHT22;9320;50.256;19.026;2022-11-14T04:54:01;6.80;99.90
18388;DHT22;9320;50.256;19.026;2022-11-14T04:56:29;6.80;99.90
18388;DHT22;9320;50.256;19.026;2022-11-14T04:58:57;6.90;99.90
18388;DHT22;9320;50.256;19.026;2022-11-14T05:01:25;6.70;99.90
18388;DHT22;9320;50.256;19.026;2022-11-14T05:03:53;6.70;99.90
18388;DHT22;9320;50.256;19.026;2022-11-14T05:06:21;6.60;99.90
18388;DHT22;9320;50.256;19.026;2022-11-14T05:08:49;6.70;99.90
18388;DHT22;9320;50.256;19.026;2022-11-14T05:11:19;6.60;99.90
18388;DHT22;9320;50.256;19.026;2022-11-14T05:13:54;6.40;99.90
18388;DHT22;9320;50.256;19.026;2022-11-14T05:16:22;6.40;99.90
18388;DHT22;9320;50.256;19.026;2022-11-14T05:18:52;6.40;99.90
18388;DHT22;9320;50.256;19.026;2022-11-14T05:21:20;6.50;99.90
18388;DHT22;9320;50.256;19.026;2022-11-14T05:23:48;6.50;99.90
18388;DHT22;9320;50.256;19.026;2022-11-14T05:26:18;6.40;99.90
18388;DHT22;9320;50.256;19.026;2022-11-14T05:28:46;6.50;99.90
18388;DHT22;9320;50.256;19.026;2022-11-14T05:31:14;6.70;99.90
18388;DHT22;9320;50.256;19.026;2022-11-14T05:33:43;6.70;99.90
18388;DHT22;9320;50.256;19.026;2022-11-14T05:36:13;6.50;99.90
18388;DHT22;9320;50.256;19.026;2022-11-14T05:38:41;6.40;99.90
18388;DHT22;9320;50.256;19.026;2022-11-14T05:41:11;6.30;99.90
18388;DHT22;9320;50.256;19.026;2022-11-14T05:43:41;6.20;99.90
18388;DHT22;9320;50.256;19.026;2022-11-14T05:46:12;6.20;99.90
18388;DHT22;9320;50.256;19.026;2022-11-14T05:48:41;6.40;99.90
18388;DHT22;9320;50.256;19.026;2022-11-14T05:51:10;6.40;99.90
18388;DHT22;9320;50.256;19.026;2022-11-14T05:53:39;6.50;99.90
18388;DHT22;9320;50.256;19.026;2022-11-14T05:56:10;6.40;99.90
18388;DHT22;9320;50.256;19.026;2022-11-14T05:58:38;6.10;99.90
18388;DHT22;9320;50.256;19.026;2022-11-14T06:01:09;6.10;99.90
18388;DHT22;9320;50.256;19.026;2022-11-14T06:03:39;6.00;99.90
18388;DHT22;9320;50.256;19.026;2022-11-14T06:06:09;6.00;99.90
18388;DHT22;9320;50.256;19.026;2022-11-14T06:08:37;6.10;99.90
18388;DHT22;9320;50.256;19.026;2022-11-14T06:11:07;6.00;99.90
18388;DHT22;9320;50.256;19.026;2022-11-14T06:13:36;6.00;99.90
18388;DHT22;9320;50.256;19.026;2022-11-14T06:16:06;6.10;99.90
18388;DHT22;9320;50.256;19.026;2022-11-14T06:18:36;6.50;99.90
18388;DHT22;9320;50.256;19.026;2022-11-14T06:21:06;6.60;99.90
18388;DHT22;9320;50.256;19.026;2022-11-14T06:23:35;6.70;99.90
18388;DHT22;9320;50.256;19.026;2022-11-14T06:26:05;6.90;99.90
18388;DHT22;9320;50.256;19.026;2022-11-14T06:28:34;6.90;99.90
18388;DHT22;9320;50.256;19.026;2022-11-14T06:31:03;6.90;99.90
18388;DHT22;9320;50.256;19.026;2022-11-14T06:33:33;6.90;99.90
18388;DHT22;9320;50.256;19.026;2022-11-14T06:36:04;6.80;99.90
18388;DHT22;9320;50.256;19.026;2022-11-14T06:38:33;6.80;99.90
18388;DHT22;9320;50.256;19.026;2022-11-14T06:41:02;6.90;99.90
18388;DHT22;9320;50.256;19.026;2022-11-14T06:43:33;6.70;99.90
18388;DHT22;9320;50.256;19.026;2022-11-14T06:46:02;6.80;99.90
18388;DHT22;9320;50.256;19.026;2022-11-14T06:48:30;6.90;99.90
18388;DHT22;9320;50.256;19.026;2022-11-14T06:50:59;7.00;99.90
18388;DHT22;9320;50.256;19.026;2022-11-14T06:53:30;7.10;99.90
18388;DHT22;9320;50.256;19.026;2022-11-14T06:56:00;7.10;99.90
18388;DHT22;9320;50.256;19.026;2022-11-14T06:58:30;7.30;99.90
18388;DHT22;9320;50.256;19.026;2022-11-14T07:01:02;7.40;99.90
18388;DHT22;9320;50.256;19.026;2022-11-14T07:03:32;7.40;99.90
18388;DHT22;9320;50.256;19.026;2022-11-14T07:06:01;7.50;99.90
18388;DHT22;9320;50.256;19.026;2022-11-14T07:08:30;7.40;99.90
18388;DHT22;9320;50.256;19.026;2022-11-14T07:11:03;7.50;99.90
18388;DHT22;9320;50.256;19.026;2022-11-14T07:13:33;7.60;99.90
18388;DHT22;9320;50.256;19.026;2022-11-14T07:16:01;7.50;99.90
18388;DHT22;9320;50.256;19.026;2022-11-14T07:18:30;7.50;99.90
18388;DHT22;9320;50.256;19.026;2022-11-14T07:21:01;7.30;99.90
18388;DHT22;9320;50.256;19.026;2022-11-14T07:23:32;7.50;99.90
18388;DHT22;9320;50.256;19.026;2022-11-14T07:26:00;7.60;99.90
18388;DHT22;9320;50.256;19.026;2022-11-14T07:28:30;7.80;99.90
18388;DHT22;9320;50.256;19.026;2022-11-14T07:31:01;7.90;99.90
18388;DHT22;9320;50.256;19.026;2022-11-14T07:33:29;7.50;99.90
18388;DHT22;9320;50.256;19.026;2022-11-14T07:35:57;7.70;99.90
18388;DHT22;9320;50.256;19.026;2022-11-14T07:38:25;7.80;99.90
18388;DHT22;9320;50.256;19.026;2022-11-14T07:40:57;7.70;99.90
18388;DHT22;9320;50.256;19.026;2022-11-14T07:43:26;7.70;99.90
18388;DHT22;9320;50.256;19.026;2022-11-14T07:45:58;7.70;99.90
18388;DHT22;9320;50.256;19.026;2022-11-14T07:48:26;7.60;99.90
18388;DHT22;9320;50.256;19.026;2022-11-14T07:50:57;7.60;99.90
18388;DHT22;9320;50.256;19.026;2022-11-14T07:53:26;7.70;99.90
18388;DHT22;9320;50.256;19.026;2022-11-14T07:55:55;7.80;99.90
18388;DHT22;9320;50.256;19.026;2022-11-14T07:58:24;7.80;99.90
18388;DHT22;9320;50.256;19.026;2022-11-14T08:00:52;7.90;99.90
18388;DHT22;9320;50.256;19.026;2022-11-14T08:03:20;7.90;99.90
18388;DHT22;9320;50.256;19.026;2022-11-14T08:05:48;7.80;99.90
18388;DHT22;9320;50.256;19.026;2022-11-14T08:08:16;7.70;99.90
18388;DHT22;9320;50.256;19.026;2022-11-14T08:10:44;7.90;99.90
18388;DHT22;9320;50.256;19.026;2022-11-14T08:13:13;7.80;99.90
18388;DHT22;9320;50.256;19.026;2022-11-14T08:16:03;7.70;99.90
18388;DHT22;9320;50.256;19.026;2022-11-14T08:18:38;7.80;99.90
18388;DHT22;9320;50.256;19.026;2022-11-14T08:21:06;8.20;99.90
18388;DHT22;9320;50.256;19.026;2022-11-14T08:23:34;8.30;99.90
18388;DHT22;9320;50.256;19.026;2022-11-14T08:26:02;8.20;99.90
18388;DHT22;9320;50.256;19.026;2022-11-14T08:28:32;8.20;99.90
18388;DHT22;9320;50.256;19.026;2022-11-14T08:31:01;8.00;99.90
18388;DHT22;9320;50.256;19.026;2022-11-14T08:33:29;7.80;99.90
18388;DHT22;9320;50.256;19.026;2022-11-14T08:35:59;7.90;99.90
18388;DHT22;9320;50.256;19.026;2022-11-14T08:38:28;8.20;99.90
18388;DHT22;9320;50.256;19.026;2022-11-14T08:40:57;8.20;99.90
18388;DHT22;9320;50.256;19.026;2022-11-14T08:43:26;8.20;99.90
18388;DHT22;9320;50.256;19.026;2022-11-14T08:45:57;8.20;99.90
18388;DHT22;9320;50.256;19.026;2022-11-14T08:48:28;8.20;99.90
18388;DHT22;9320;50.256;19.026;2022-11-14T08:51:00;8.30;99.90
18388;DHT22;9320;50.256;19.026;2022-11-14T08:53:29;8.50;99.90
18388;DHT22;9320;50.256;19.026;2022-11-14T08:55:57;8.50;99.90
18388;DHT22;9320;50.256;19.026;2022-11-14T08:58:27;8.70;99.90
18388;DHT22;9320;50.256;19.026;2022-11-14T09:01:03;8.80;99.90
18388;DHT22;9320;50.256;19.026;2022-11-14T09:03:32;9.00;99.90
18388;DHT22;9320;50.256;19.026;2022-11-14T09:06:00;9.20;99.90
18388;DHT22;9320;50.256;19.026;2022-11-14T09:08:29;9.00;99.90
18388;DHT22;9320;50.256;19.026;2022-11-14T09:11:00;8.80;99.90
18388;DHT22;9320;50.256;19.026;2022-11-14T09:13:32;8.90;99.90
18388;DHT22;9320;50.256;19.026;2022-11-14T09:16:02;8.60;99.90
18388;DHT22;9320;50.256;19.026;2022-11-14T09:18:30;9.00;99.90
18388;DHT22;9320;50.256;19.026;2022-11-14T09:20:59;9.20;99.90
18388;DHT22;9320;50.256;19.026;2022-11-14T09:23:28;9.40;99.90
18388;DHT22;9320;50.256;19.026;2022-11-14T09:25:56;9.50;99.90
18388;DHT22;9320;50.256;19.026;2022-11-14T09:28:24;9.70;99.90
18388;DHT22;9320;50.256;19.026;2022-11-14T09:30:52;9.70;99.90
18388;DHT22;9320;50.256;19.026;2022-11-14T09:33:22;9.70;99.90
18388;DHT22;9320;50.256;19.026;2022-11-14T09:35:55;9.60;99.90
18388;DHT22;9320;50.256;19.026;2022-11-14T09:38:23;9.20;99.90
18388;DHT22;9320;50.256;19.026;2022-11-14T09:41:01;8.90;99.90
18388;DHT22;9320;50.256;19.026;2022-11-14T09:43:40;9.20;99.90
18388;DHT22;9320;50.256;19.026;2022-11-14T09:46:17;9.00;99.90
18388;DHT22;9320;50.256;19.026;2022-11-14T09:48:48;9.00;99.90
18388;DHT22;9320;50.256;19.026;2022-11-14T09:51:19;9.20;99.90
18388;DHT22;9320;50.256;19.026;2022-11-14T09:53:52;9.50;99.90
18388;DHT22;9320;50.256;19.026;2022-11-14T09:56:23;9.50;99.90
18388;DHT22;9320;50.256;19.026;2022-11-14T09:58:52;9.30;99.90
18388;DHT22;9320;50.256;19.026;2022-11-14T10:01:29;9.20;99.90
18388;DHT22;9320;50.256;19.026;2022-11-14T10:04:06;9.30;99.90
18388;DHT22;9320;50.256;19.026;2022-11-14T10:06:42;8.80;99.90
18388;DHT22;9320;50.256;19.026;2022-11-14T10:09:34;9.20;99.90
18388;DHT22;9320;50.256;19.026;2022-11-14T10:12:06;9.50;99.90
18388;DHT22;9320;50.256;19.026;2022-11-14T10:14:56;9.80;99.90
18388;DHT22;9320;50.256;19.026;2022-11-14T10:17:44;10.10;99.90
18388;DHT22;9320;50.256;19.026;2022-11-14T10:20:25;10.20;99.90
18388;DHT22;9320;50.256;19.026;2022-11-14T10:23:11;10.40;99.90
18388;DHT22;9320;50.256;19.026;2022-11-14T10:25:48;10.50;99.90
18388;DHT22;9320;50.256;19.026;2022-11-14T10:28:38;10.20;99.90
18388;DHT22;9320;50.256;19.026;2022-11-14T10:31:17;10.20;99.90
18388;DHT22;9320;50.256;19.026;2022-11-14T10:33:51;10.20;99.90
18388;DHT22;9320;50.256;19.026;2022-11-14T10:36:42;10.10;99.90
18388;DHT22;9320;50.256;19.026;2022-11-14T10:39:17;10.20;99.90
18388;DHT22;9320;50.256;19.026;2022-11-14T10:41:49;10.30;99.90
18388;DHT22;9320;50.256;19.026;2022-11-14T10:44:33;10.20;99.90
18388;DHT22;9320;50.256;19.026;2022-11-14T10:47:05;10.00;99.90
18388;DHT22;9320;50.256;19.026;2022-11-14T10:49:34;10.10;99.90
18388;DHT22;9320;50.256;19.026;2022-11-14T10:52:10;10.10;99.90
18388;DHT22;9320;50.256;19.026;2022-11-14T10:54:43;10.20;99.90
18388;DHT22;9320;50.256;19.026;2022-11-14T10:57:17;10.40;99.90
18388;DHT22;9320;50.256;19.026;2022-11-14T10:59:45;10.30;99.90
18388;DHT22;9320;50.256;19.026;2022-11-14T11:02:14;10.00;99.90
18388;DHT22;9320;50.256;19.026;2022-11-14T11:04:43;9.80;99.90
18388;DHT22;9320;50.256;19.026;2022-11-14T11:07:24;9.70;99.90
18388;DHT22;9320;50.256;19.026;2022-11-14T11:10:19;9.20;99.90
18388;DHT22;9320;50.256;19.026;2022-11-14T11:13:08;9.10;99.90
18388;DHT22;9320;50.256;19.026;2022-11-14T11:15:39;9.10;99.90
18388;DHT22;9320;50.256;19.026;2022-11-14T11:18:24;9.10;99.90
18388;DHT22;9320;50.256;19.026;2022-11-14T11:21:07;9.40;99.90
18388;DHT22;9320;50.256;19.026;2022-11-14T11:23:47;9.90;99.90
18388;DHT22;9320;50.256;19.026;2022-11-14T11:26:19;10.00;99.90
18388;DHT22;9320;50.256;19.026;2022-11-14T11:29:05;10.10;99.90
18388;DHT22;9320;50.256;19.026;2022-11-14T11:31:51;10.10;99.90
18388;DHT22;9320;50.256;19.026;2022-11-14T11:34:23;10.20;99.90
18388;DHT22;9320;50.256;19.026;2022-11-14T11:36:56;10.40;99.90
18388;DHT22;9320;50.256;19.026;2022-11-14T11:39:29;10.50;99.90
18388;DHT22;9320;50.256;19.026;2022-11-14T11:42:03;10.70;99.90
18388;DHT22;9320;50.256;19.026;2022-11-14T11:44:42;10.90;99.90
18388;DHT22;9320;50.256;19.026;2022-11-14T11:47:13;10.90;99.90
18388;DHT22;9320;50.256;19.026;2022-11-14T11:49:44;10.50;99.90
18388;DHT22;9320;50.256;19.026;2022-11-14T11:52:27;10.50;99.90
18388;DHT22;9320;50.256;19.026;2022-11-14T11:55:02;10.50;99.90
18388;DHT22;9320;50.256;19.026;2022-11-14T11:57:34;10.10;99.90
18388;DHT22;9320;50.256;19.026;2022-11-14T12:00:06;9.90;99.90
18388;DHT22;9320;50.256;19.026;2022-11-14T12:02:41;10.10;99.90
18388;DHT22;9320;50.256;19.026;2022-11-14T12:05:20;10.10;99.90
18388;DHT22;9320;50.256;19.026;2022-11-14T12:07:56;9.90;99.90
18388;DHT22;9320;50.256;19.026;2022-11-14T12:10:29;10.00;99.90
18388;DHT22;9320;50.256;19.026;2022-11-14T12:16:35;10.00;99.90
18388;DHT22;9320;50.256;19.026;2022-11-14T12:19:28;10.20;99.90
18388;DHT22;9320;50.256;19.026;2022-11-14T12:22:12;10.40;99.90
18388;DHT22;9320;50.256;19.026;2022-11-14T12:24:57;10.40;99.90
18388;DHT22;9320;50.256;19.026;2022-11-14T12:27:40;10.40;99.90
18388;DHT22;9320;50.256;19.026;2022-11-14T12:30:17;10.50;99.90
18388;DHT22;9320;50.256;19.026;2022-11-14T12:32:50;10.40;99.90
18388;DHT22;9320;50.256;19.026;2022-11-14T12:35:22;10.30;99.90
18388;DHT22;9320;50.256;19.026;2022-11-14T12:37:54;10.30;99.90
18388;DHT22;9320;50.256;19.026;2022-11-14T12:40:26;10.00;99.90
18388;DHT22;9320;50.256;19.026;2022-11-14T12:42:57;10.20;99.90
18388;DHT22;9320;50.256;19.026;2022-11-14T12:45:55;10.30;99.90
18388;DHT22;9320;50.256;19.026;2022-11-14T12:48:32;10.20;99.90
18388;DHT22;9320;50.256;19.026;2022-11-14T12:51:01;10.30;99.90
18388;DHT22;9320;50.256;19.026;2022-11-14T12:53:43;10.10;99.90
18388;DHT22;9320;50.256;19.026;2022-11-14T12:56:21;9.80;99.90
18388;DHT22;9320;50.256;19.026;2022-11-14T12:59:23;9.60;99.90
18388;DHT22;9320;50.256;19.026;2022-11-14T13:02:10;9.50;99.90
18388;DHT22;9320;50.256;19.026;2022-11-14T13:04:58;9.40;99.90
18388;DHT22;9320;50.256;19.026;2022-11-14T13:07:41;9.20;99.90
18388;DHT22;9320;50.256;19.026;2022-11-14T13:10:14;9.40;99.90
18388;DHT22;9320;50.256;19.026;2022-11-14T13:12:56;9.50;99.90
18388;DHT22;9320;50.256;19.026;2022-11-14T13:15:49;9.50;99.90
18388;DHT22;9320;50.256;19.026;2022-11-14T13:18:36;9.40;99.90
18388;DHT22;9320;50.256;19.026;2022-11-14T13:21:33;9.60;99.90
18388;DHT22;9320;50.256;19.026;2022-11-14T13:24:14;9.60;99.90
18388;DHT22;9320;50.256;19.026;2022-11-14T13:26:48;9.60;99.90
18388;DHT22;9320;50.256;19.026;2022-11-14T13:35:41;9.30;99.90
18388;DHT22;9320;50.256;19.026;2022-11-14T13:41:08;9.20;99.90
18388;DHT22;9320;50.256;19.026;2022-11-14T13:44:13;9.20;99.90
18388;DHT22;9320;50.256;19.026;2022-11-14T13:46:57;9.10;99.90
18388;DHT22;9320;50.256;19.026;2022-11-14T13:49:39;9.20;99.90
18388;DHT22;9320;50.256;19.026;2022-11-14T13:52:16;9.40;99.90
18388;DHT22;9320;50.256;19.026;2022-11-14T13:54:45;9.30;99.90
18388;DHT22;9320;50.256;19.026;2022-11-14T13:57:21;9.10;99.90
18388;DHT22;9320;50.256;19.026;2022-11-14T13:59:57;9.00;99.90
18388;DHT22;9320;50.256;19.026;2022-11-14T14:02:45;9.00;99.90
18388;DHT22;9320;50.256;19.026;2022-11-14T14:05:23;9.00;99.90
18388;DHT22;9320;50.256;19.026;2022-11-14T14:08:13;8.90;99.90
18388;DHT22;9320;50.256;19.026;2022-11-14T14:10:53;8.80;99.90
18388;DHT22;9320;50.256;19.026;2022-11-14T14:13:32;9.00;99.90
18388;DHT22;9320;50.256;19.026;2022-11-14T14:16:13;8.80;99.90
18388;DHT22;9320;50.256;19.026;2022-11-14T14:18:49;8.90;99.90
18388;DHT22;9320;50.256;19.026;2022-11-14T14:21:35;8.80;99.90
18388;DHT22;9320;50.256;19.026;2022-11-14T14:24:15;8.70;99.90
18388;DHT22;9320;50.256;19.026;2022-11-14T14:26:56;8.60;99.90
18388;DHT22;9320;50.256;19.026;2022-11-14T14:29:35;8.60;99.90
18388;DHT22;9320;50.256;19.026;2022-11-14T14:32:11;8.50;99.90
18388;DHT22;9320;50.256;19.026;2022-11-14T14:34:39;8.50;99.90
18388;DHT22;9320;50.256;19.026;2022-11-14T14:37:16;8.50;99.90
18388;DHT22;9320;50.256;19.026;2022-11-14T14:39:59;8.40;99.90
18388;DHT22;9320;50.256;19.026;2022-11-14T14:42:35;8.30;99.90
18388;DHT22;9320;50.256;19.026;2022-11-14T14:45:09;8.20;99.90
18388;DHT22;9320;50.256;19.026;2022-11-14T14:47:42;8.10;99.90
18388;DHT22;9320;50.256;19.026;2022-11-14T14:50:15;8.10;99.90
18388;DHT22;9320;50.256;19.026;2022-11-14T14:52:44;7.90;99.90
18388;DHT22;9320;50.256;19.026;2022-11-14T14:55:22;8.00;99.90
18388;DHT22;9320;50.256;19.026;2022-11-14T14:57:50;7.90;99.90
18388;DHT22;9320;50.256;19.026;2022-11-14T15:00:20;7.70;99.90
18388;DHT22;9320;50.256;19.026;2022-11-14T15:02:53;7.60;99.90
18388;DHT22;9320;50.256;19.026;2022-11-14T15:05:22;7.60;99.90
18388;DHT22;9320;50.256;19.026;2022-11-14T15:07:52;7.50;99.90
18388;DHT22;9320;50.256;19.026;2022-11-14T15:10:24;7.50;99.90
18388;DHT22;9320;50.256;19.026;2022-11-14T15:12:55;7.60;99.90
18388;DHT22;9320;50.256;19.026;2022-11-14T15:15:25;7.60;99.90
18388;DHT22;9320;50.256;19.026;2022-11-14T15:17:54;7.70;99.90
18388;DHT22;9320;50.256;19.026;2022-11-14T15:20:25;7.80;99.90
18388;DHT22;9320;50.256;19.026;2022-11-14T15:23:04;7.60;99.90
18388;DHT22;9320;50.256;19.026;2022-11-14T15:25:34;7.50;99.90
18388;DHT22;9320;50.256;19.026;2022-11-14T15:28:02;7.40;99.90
18388;DHT22;9320;50.256;19.026;2022-11-14T15:30:35;7.40;99.90
18388;DHT22;9320;50.256;19.026;2022-11-14T15:33:05;7.40;99.90
18388;DHT22;9320;50.256;19.026;2022-11-14T15:36:04;7.30;99.90
18388;DHT22;9320;50.256;19.026;2022-11-14T15:38:33;7.20;99.90
18388;DHT22;9320;50.256;19.026;2022-11-14T15:41:22;7.20;99.90
18388;DHT22;9320;50.256;19.026;2022-11-14T15:43:51;7.20;99.90
18388;DHT22;9320;50.256;19.026;2022-11-14T15:46:42;7.20;99.90
18388;DHT22;9320;50.256;19.026;2022-11-14T15:49:19;7.20;99.90
18388;DHT22;9320;50.256;19.026;2022-11-14T15:51:50;7.20;99.90
18388;DHT22;9320;50.256;19.026;2022-11-14T15:54:26;7.30;99.90
18388;DHT22;9320;50.256;19.026;2022-11-14T15:56:58;7.20;99.90
18388;DHT22;9320;50.256;19.026;2022-11-14T15:59:28;7.10;99.90
18388;DHT22;9320;50.256;19.026;2022-11-14T16:01:58;7.20;99.90
18388;DHT22;9320;50.256;19.026;2022-11-14T16:04:31;7.20;99.90
18388;DHT22;9320;50.256;19.026;2022-11-14T16:07:00;7.20;99.90
18388;DHT22;9320;50.256;19.026;2022-11-14T16:09:28;7.10;99.90
18388;DHT22;9320;50.256;19.026;2022-11-14T16:11:57;7.10;99.90
18388;DHT22;9320;50.256;19.026;2022-11-14T16:14:25;7.10;99.90
18388;DHT22;9320;50.256;19.026;2022-11-14T16:16:53;7.00;99.90
18388;DHT22;9320;50.256;19.026;2022-11-14T16:19:21;7.10;99.90
18388;DHT22;9320;50.256;19.026;2022-11-14T16:21:49;7.00;99.90
18388;DHT22;9320;50.256;19.026;2022-11-14T16:24:19;7.20;99.90
18388;DHT22;9320;50.256;19.026;2022-11-14T16:26:47;7.10;99.90
18388;DHT22;9320;50.256;19.026;2022-11-14T16:29:17;7.30;99.90
18388;DHT22;9320;50.256;19.026;2022-11-14T16:31:45;7.30;99.90